createdAt,value
2022-11-15T00:00:44.163Z,12.88
2022-11-15T00:01:44.229Z,13.00
2022-11-15T00:02:44.143Z,12.99
2022-11-15T00:03:44.150Z,13.03
2022-11-15T00:04:44.131Z,12.70
2022-11-15T00:05:44.134Z,12.74
2022-11-15T00:06:44.271Z,12.56
2022-11-15T00:07:55.210Z,12.64
2022-11-15T00:08:46.123Z,12.67
2022-11-15T00:09:46.093Z,12.66
2022-11-15T00:10:45.114Z,12.75
2022-11-15T00:11:44.078Z,12.79
2022-11-15T00:12:44.118Z,12.74
2022-11-15T00:13:44.062Z,12.82
2022-11-15T00:14:44.070Z,12.87
2022-11-15T00:15:44.077Z,12.81
2022-11-15T00:16:44.035Z,12.82
2022-11-15T00:17:44.054Z,12.87
2022-11-15T00:18:49.328Z,12.97
2022-11-15T00:19:46.022Z,13.03
2022-11-15T00:20:44.065Z,13.03
2022-11-15T00:21:44.023Z,13.29
2022-11-15T00:22:44.014Z,13.22
2022-11-15T00:23:44.000Z,13.21
2022-11-15T00:24:44.002Z,13.30
2022-11-15T00:25:44.005Z,13.40
2022-11-15T00:26:43.978Z,13.37
2022-11-15T00:27:43.976Z,13.29
2022-11-15T00:28:43.969Z,13.29
2022-11-15T00:29:43.964Z,13.43
2022-11-15T00:30:43.946Z,13.29
2022-11-15T00:31:43.962Z,13.30
2022-11-15T00:32:43.945Z,13.27
2022-11-15T00:33:43.927Z,13.40
2022-11-15T00:34:43.922Z,13.47
2022-11-15T00:35:43.954Z,13.44
2022-11-15T00:36:43.917Z,13.47
2022-11-15T00:37:43.895Z,13.52
2022-11-15T00:38:44.090Z,13.47
2022-11-15T00:39:43.894Z,13.55
2022-11-15T00:40:43.871Z,13.63
2022-11-15T00:41:43.893Z,13.44
2022-11-15T00:42:43.884Z,13.54
2022-11-15T00:43:43.876Z,13.52
2022-11-15T00:44:43.865Z,13.69
2022-11-15T00:45:43.850Z,13.49
2022-11-15T00:46:43.845Z,13.37
2022-11-15T00:47:43.853Z,13.00
2022-11-15T00:48:43.825Z,12.85
2022-11-15T00:49:44.823Z,12.75
2022-11-15T00:50:43.814Z,12.78
2022-11-15T00:51:43.816Z,12.84
2022-11-15T00:52:43.809Z,12.82
2022-11-15T00:53:43.824Z,12.95
2022-11-15T00:54:43.781Z,12.81
2022-11-15T00:55:43.789Z,12.62
2022-11-15T00:56:43.768Z,12.71
2022-11-15T00:57:43.780Z,12.81
2022-11-15T00:58:43.760Z,12.93
2022-11-15T00:59:43.777Z,13.00
2022-11-15T01:00:43.804Z,12.99
2022-11-15T01:01:43.800Z,13.02
2022-11-15T01:02:43.736Z,12.92
2022-11-15T01:03:43.721Z,12.85
2022-11-15T01:04:43.704Z,12.99
2022-11-15T01:05:43.718Z,13.02
2022-11-15T01:06:43.709Z,12.96
2022-11-15T01:07:43.744Z,12.78
2022-11-15T01:08:43.692Z,12.60
2022-11-15T01:09:43.703Z,12.48
2022-11-15T01:10:43.691Z,12.31
2022-11-15T01:11:43.679Z,12.27
2022-11-15T01:12:43.662Z,12.34
2022-11-15T01:13:43.686Z,12.38
2022-11-15T01:14:43.658Z,12.38
2022-11-15T01:15:43.695Z,12.31
2022-11-15T01:16:43.642Z,12.24
2022-11-15T01:17:43.634Z,12.24
2022-11-15T01:18:43.614Z,12.12
2022-11-15T01:19:44.621Z,12.23
2022-11-15T01:20:43.628Z,12.02
2022-11-15T01:21:43.611Z,11.99
2022-11-15T01:22:43.601Z,12.11
2022-11-15T01:23:43.590Z,12.19
2022-11-15T01:24:43.587Z,12.20
2022-11-15T01:25:43.576Z,12.26
2022-11-15T01:26:43.577Z,12.27
2022-11-15T01:27:44.588Z,12.27
2022-11-15T01:28:43.573Z,12.23
2022-11-15T01:29:43.562Z,12.41
2022-11-15T01:30:43.574Z,12.44
2022-11-15T01:31:43.579Z,12.49
2022-11-15T01:32:43.566Z,12.60
2022-11-15T01:33:43.517Z,12.75
2022-11-15T01:34:44.522Z,12.70
2022-11-15T01:35:43.512Z,12.44
2022-11-15T01:36:43.531Z,12.45
2022-11-15T01:37:43.526Z,12.63
2022-11-15T01:38:43.504Z,12.67
2022-11-15T01:39:43.532Z,12.75
2022-11-15T01:40:43.485Z,12.88
2022-11-15T01:41:43.487Z,12.81
2022-11-15T01:42:43.494Z,12.74
2022-11-15T01:43:43.487Z,12.70
2022-11-15T01:44:43.484Z,12.70
2022-11-15T01:45:43.477Z,12.75
2022-11-15T01:46:43.453Z,12.78
2022-11-15T01:47:43.453Z,12.77
2022-11-15T01:48:43.486Z,12.77
2022-11-15T01:49:43.435Z,12.74
2022-11-15T01:50:43.444Z,12.84
2022-11-15T01:51:43.436Z,12.87
2022-11-15T01:52:43.428Z,12.96
2022-11-15T01:53:43.432Z,12.93
2022-11-15T01:54:43.401Z,12.93
2022-11-15T01:55:43.380Z,12.95
2022-11-15T01:56:43.375Z,12.92
2022-11-15T01:57:43.372Z,12.92
2022-11-15T01:58:43.379Z,12.79
2022-11-15T01:59:43.391Z,12.74
2022-11-15T02:00:43.403Z,12.66
2022-11-15T02:01:43.352Z,12.54
2022-11-15T02:02:43.359Z,12.57
2022-11-15T02:03:43.345Z,12.46
2022-11-15T02:04:43.347Z,12.44
2022-11-15T02:05:43.328Z,12.42
2022-11-15T02:06:43.304Z,12.24
2022-11-15T02:07:43.312Z,12.23
2022-11-15T02:08:43.303Z,12.16
2022-11-15T02:09:43.300Z,12.15
2022-11-15T02:10:43.301Z,12.16
2022-11-15T02:11:43.301Z,12.05
2022-11-15T02:12:43.275Z,12.08
2022-11-15T02:13:43.267Z,11.90
2022-11-15T02:14:43.266Z,12.04
2022-11-15T02:15:43.273Z,11.90
2022-11-15T02:16:43.269Z,12.02
2022-11-15T02:17:43.237Z,11.86
2022-11-15T02:18:43.240Z,11.70
2022-11-15T02:19:43.228Z,11.61
2022-11-15T02:20:43.236Z,11.52
2022-11-15T02:21:43.219Z,11.25
2022-11-15T02:22:43.229Z,11.03
2022-11-15T02:23:43.212Z,10.70
2022-11-15T02:24:43.197Z,10.73
2022-11-15T02:25:43.212Z,10.88
2022-11-15T02:26:43.493Z,10.60
2022-11-15T02:27:43.226Z,10.70
2022-11-15T02:28:43.193Z,10.58
2022-11-15T02:29:43.170Z,10.39
2022-11-15T02:30:43.163Z,10.25
2022-11-15T02:31:43.166Z,10.34
2022-11-15T02:32:43.179Z,10.28
2022-11-15T02:33:43.163Z,10.24
2022-11-15T02:34:43.150Z,10.34
2022-11-15T02:35:43.123Z,10.22
2022-11-15T02:36:43.156Z,10.12
2022-11-15T02:37:43.113Z,10.22
2022-11-15T02:38:43.171Z,10.14
2022-11-15T02:39:43.113Z,10.32
2022-11-15T02:40:43.130Z,10.25
2022-11-15T02:41:43.098Z,10.17
2022-11-15T02:42:43.095Z,10.24
2022-11-15T02:43:43.097Z,10.21
2022-11-15T02:44:43.110Z,10.14
2022-11-15T02:45:43.100Z,9.86
2022-11-15T02:46:43.062Z,9.88
2022-11-15T02:47:43.058Z,10.01
2022-11-15T02:48:43.058Z,10.06
2022-11-15T02:49:43.074Z,10.10
2022-11-15T02:50:43.066Z,9.96
2022-11-15T02:51:43.082Z,9.81
2022-11-15T02:52:43.046Z,9.89
2022-11-15T02:53:43.030Z,10.01
2022-11-15T02:54:43.034Z,10.06
2022-11-15T02:55:43.026Z,10.15
2022-11-15T02:56:43.030Z,10.14
2022-11-15T02:57:43.053Z,10.09
2022-11-15T02:58:42.994Z,10.21
2022-11-15T02:59:42.995Z,10.14
2022-11-15T03:00:43.053Z,10.24
2022-11-15T03:01:42.974Z,10.32
2022-11-15T03:02:43.014Z,10.42
2022-11-15T03:03:42.971Z,10.66
2022-11-15T03:04:42.977Z,10.55
2022-11-15T03:05:42.954Z,10.76
2022-11-15T03:06:42.951Z,10.80
2022-11-15T03:07:42.982Z,10.77
2022-11-15T03:08:42.952Z,10.63
2022-11-15T03:09:42.941Z,10.55
2022-11-15T03:10:42.939Z,10.53
2022-11-15T03:11:42.939Z,10.56
2022-11-15T03:12:42.922Z,10.77
2022-11-15T03:13:42.939Z,10.70
2022-11-15T03:14:42.906Z,10.60
2022-11-15T03:15:42.895Z,10.68
2022-11-15T03:16:42.939Z,10.65
2022-11-15T03:17:42.899Z,10.89
2022-11-15T03:18:42.890Z,10.92
2022-11-15T03:19:42.915Z,10.95
2022-11-15T03:20:42.868Z,10.86
2022-11-15T03:21:42.888Z,10.98
2022-11-15T03:22:43.574Z,10.84
2022-11-15T03:23:42.852Z,10.95
2022-11-15T03:24:42.854Z,10.73
2022-11-15T03:25:42.892Z,10.68
2022-11-15T03:26:42.862Z,10.63
2022-11-15T03:27:42.834Z,10.86
2022-11-15T03:28:42.826Z,10.77
2022-11-15T03:29:42.822Z,10.78
2022-11-15T03:30:42.834Z,10.46
2022-11-15T03:31:48.624Z,10.32
2022-11-15T03:32:44.806Z,10.24
2022-11-15T03:33:42.838Z,10.37
2022-11-15T03:34:42.794Z,10.51
2022-11-15T03:35:42.847Z,10.56
2022-11-15T03:36:42.795Z,10.76
2022-11-15T03:37:42.799Z,10.66
2022-11-15T03:38:42.829Z,10.65
2022-11-15T03:39:42.788Z,10.71
2022-11-15T03:40:42.794Z,10.77
2022-11-15T03:41:42.780Z,10.78
2022-11-15T03:42:42.844Z,10.70
2022-11-15T03:43:42.744Z,10.66
2022-11-15T03:44:42.742Z,10.44
2022-11-15T03:45:43.533Z,10.39
2022-11-15T03:46:42.734Z,10.09
2022-11-15T03:47:42.718Z,10.12
2022-11-15T03:48:42.732Z,10.22
2022-11-15T03:49:42.714Z,10.10
2022-11-15T03:50:42.707Z,10.24
2022-11-15T03:51:42.707Z,10.33
2022-11-15T03:52:42.691Z,10.33
2022-11-15T03:53:42.686Z,10.30
2022-11-15T03:54:42.708Z,10.36
2022-11-15T03:55:43.450Z,10.26
2022-11-15T03:56:42.703Z,10.12
2022-11-15T03:57:42.675Z,10.03
2022-11-15T03:58:42.659Z,9.91
2022-11-15T03:59:42.678Z,9.75
2022-11-15T04:00:42.722Z,9.70
2022-11-15T04:01:42.698Z,9.81
2022-11-15T04:02:42.654Z,9.79
2022-11-15T04:03:42.642Z,9.91
2022-11-15T04:04:42.631Z,9.83
2022-11-15T04:05:42.643Z,9.60
2022-11-15T04:06:42.610Z,9.39
2022-11-15T04:07:42.631Z,9.40
2022-11-15T04:08:42.646Z,9.61
2022-11-15T04:09:42.607Z,9.61
2022-11-15T04:10:42.603Z,9.45
2022-11-15T04:11:42.618Z,9.40
2022-11-15T04:12:42.580Z,9.18
2022-11-15T04:13:42.591Z,9.25
2022-11-15T04:14:42.559Z,9.12
2022-11-15T04:16:08.987Z,9.06
2022-11-15T04:16:44.060Z,9.20
2022-11-15T04:17:43.546Z,9.16
2022-11-15T04:18:42.546Z,9.12
2022-11-15T04:19:42.554Z,9.15
2022-11-15T04:20:42.533Z,9.27
2022-11-15T04:21:42.559Z,9.02
2022-11-15T04:22:42.526Z,9.06
2022-11-15T04:23:42.518Z,9.16
2022-11-15T04:24:42.524Z,9.27
2022-11-15T04:25:42.520Z,9.32
2022-11-15T04:26:42.503Z,9.45
2022-11-15T04:27:42.503Z,9.50
2022-11-15T04:28:42.522Z,9.32
2022-11-15T04:29:42.471Z,9.27
2022-11-15T04:30:42.509Z,9.24
2022-11-15T04:31:42.463Z,9.12
2022-11-15T04:32:42.474Z,8.94
2022-11-15T04:33:42.452Z,8.97
2022-11-15T04:34:42.452Z,9.09
2022-11-15T04:35:42.449Z,9.16
2022-11-15T04:36:42.438Z,9.13
2022-11-15T04:37:47.964Z,8.96
2022-11-15T04:38:44.422Z,8.88
2022-11-15T04:39:42.428Z,8.81
2022-11-15T04:40:42.442Z,9.04
2022-11-15T04:41:42.420Z,9.24
2022-11-15T04:42:42.399Z,9.01
2022-11-15T04:43:42.385Z,9.05
2022-11-15T04:44:42.400Z,9.12
2022-11-15T04:45:42.383Z,9.16
2022-11-15T04:46:42.393Z,9.05
2022-11-15T04:47:42.371Z,9.13
2022-11-15T04:48:42.402Z,9.24
2022-11-15T04:49:42.354Z,9.35
2022-11-15T04:50:42.345Z,9.27
2022-11-15T04:51:42.362Z,9.39
2022-11-15T04:52:42.346Z,9.35
2022-11-15T04:53:43.316Z,9.13
2022-11-15T04:54:42.325Z,9.18
2022-11-15T04:55:42.325Z,9.12
2022-11-15T04:56:42.309Z,9.15
2022-11-15T04:57:42.325Z,9.18
2022-11-15T04:58:42.314Z,9.15
2022-11-15T04:59:42.300Z,9.06
2022-11-15T05:00:42.299Z,9.05
2022-11-15T05:01:45.025Z,9.05
2022-11-15T05:02:44.048Z,9.02
2022-11-15T05:03:42.265Z,9.16
2022-11-15T05:04:42.256Z,8.86
2022-11-15T05:05:42.257Z,8.96
2022-11-15T05:06:42.255Z,8.96
2022-11-15T05:07:42.287Z,8.99
2022-11-15T05:08:42.259Z,9.15
2022-11-15T05:09:42.256Z,9.15
2022-11-15T05:10:42.238Z,9.32
2022-11-15T05:11:42.491Z,9.39
2022-11-15T05:12:42.220Z,9.53
2022-11-15T05:13:42.229Z,9.63
2022-11-15T05:14:42.195Z,9.52
2022-11-15T05:15:42.190Z,9.35
2022-11-15T05:16:42.195Z,9.34
2022-11-15T05:17:42.196Z,9.35
2022-11-15T05:18:42.190Z,9.56
2022-11-15T05:19:42.197Z,9.71
2022-11-15T05:20:42.183Z,9.73
2022-11-15T05:21:42.165Z,9.60
2022-11-15T05:22:42.295Z,9.60
2022-11-15T05:23:42.157Z,9.60
2022-11-15T05:24:42.181Z,9.50
2022-11-15T05:25:42.125Z,9.57
2022-11-15T05:26:42.156Z,9.46
2022-11-15T05:27:42.157Z,9.58
2022-11-15T05:28:42.118Z,9.75
2022-11-15T05:29:42.114Z,9.70
2022-11-15T05:30:42.116Z,9.76
2022-11-15T05:31:42.105Z,9.83
2022-11-15T05:32:42.096Z,9.82
2022-11-15T05:33:42.100Z,9.94
2022-11-15T05:34:42.080Z,10.10
2022-11-15T05:35:42.072Z,10.03
2022-11-15T05:36:42.084Z,9.91
2022-11-15T05:37:42.071Z,10.10
2022-11-15T05:38:42.070Z,10.21
2022-11-15T05:39:42.056Z,10.21
2022-11-15T05:40:42.030Z,10.28
2022-11-15T05:41:42.091Z,10.26
2022-11-15T05:42:42.043Z,10.37
2022-11-15T05:43:42.019Z,10.53
2022-11-15T05:44:42.025Z,10.51
2022-11-15T05:45:42.044Z,10.32
2022-11-15T05:46:42.010Z,10.19
2022-11-15T05:47:42.086Z,10.25
2022-11-15T05:48:41.998Z,10.34
2022-11-15T05:49:42.007Z,10.36
2022-11-15T05:50:41.974Z,10.44
2022-11-15T05:51:41.971Z,10.36
2022-11-15T05:52:41.988Z,10.36
2022-11-15T05:53:42.078Z,10.53
2022-11-15T05:54:41.979Z,10.59
2022-11-15T05:55:41.974Z,10.56
2022-11-15T05:56:43.031Z,10.62
2022-11-15T05:57:41.953Z,10.56
2022-11-15T05:58:41.942Z,10.66
2022-11-15T05:59:41.953Z,10.78
2022-11-15T06:00:41.934Z,10.74
2022-11-15T06:01:42.015Z,10.76
2022-11-15T06:02:41.943Z,10.84
2022-11-15T06:03:41.911Z,10.84
2022-11-15T06:04:41.929Z,10.95
2022-11-15T06:05:41.949Z,10.92
2022-11-15T06:06:41.888Z,10.91
2022-11-15T06:07:41.895Z,10.89
2022-11-15T06:08:41.955Z,11.07
2022-11-15T06:09:41.902Z,10.94
2022-11-15T06:10:41.895Z,10.92
2022-11-15T06:11:41.866Z,11.11
2022-11-15T06:12:41.894Z,11.13
2022-11-15T06:13:41.882Z,11.14
2022-11-15T06:14:41.864Z,11.20
2022-11-15T06:15:41.858Z,11.32
2022-11-15T06:16:41.854Z,11.21
2022-11-15T06:17:41.842Z,11.36
2022-11-15T06:18:41.855Z,11.34
2022-11-15T06:19:42.818Z,11.29
2022-11-15T06:20:41.847Z,11.32
2022-11-15T06:21:41.807Z,11.41
2022-11-15T06:22:41.817Z,11.36
2022-11-15T06:23:41.794Z,11.53
2022-11-15T06:24:41.798Z,11.64
2022-11-15T06:25:41.790Z,11.74
2022-11-15T06:26:41.799Z,11.67
2022-11-15T06:27:41.790Z,11.56
2022-11-15T06:28:41.779Z,11.62
2022-11-15T06:29:41.786Z,11.67
2022-11-15T06:30:41.768Z,11.65
2022-11-15T06:31:41.751Z,11.67
2022-11-15T06:32:41.758Z,11.90
2022-11-15T06:33:41.775Z,11.87
2022-11-15T06:34:41.756Z,11.96
2022-11-15T06:35:41.745Z,11.99
2022-11-15T06:36:41.732Z,12.08
2022-11-15T06:37:41.724Z,12.12
2022-11-15T06:38:41.735Z,12.02
2022-11-15T06:39:41.713Z,12.12
2022-11-15T06:40:41.744Z,12.24
2022-11-15T06:41:41.714Z,12.27
2022-11-15T06:42:41.690Z,12.11
2022-11-15T06:43:41.719Z,12.05
2022-11-15T06:44:41.692Z,12.20
2022-11-15T06:45:41.691Z,12.08
2022-11-15T06:46:41.675Z,12.06
2022-11-15T06:47:41.659Z,12.12
2022-11-15T06:48:41.689Z,11.86
2022-11-15T06:49:41.648Z,11.86
2022-11-15T06:50:41.676Z,11.71
2022-11-15T06:51:41.660Z,11.68
2022-11-15T06:52:41.665Z,11.67
2022-11-15T06:53:41.629Z,11.67
2022-11-15T06:54:41.633Z,11.50
2022-11-15T06:55:41.642Z,11.36
2022-11-15T06:56:41.605Z,11.41
2022-11-15T06:57:41.610Z,11.28
2022-11-15T06:58:41.595Z,11.41
2022-11-15T06:59:41.614Z,11.28
2022-11-15T07:00:41.643Z,11.35
2022-11-15T07:01:41.658Z,11.32
2022-11-15T07:02:41.587Z,11.35
2022-11-15T07:03:41.581Z,11.28
2022-11-15T07:04:41.586Z,11.35
2022-11-15T07:05:41.551Z,11.50
2022-11-15T07:06:41.640Z,11.39
2022-11-15T07:07:41.595Z,11.28
2022-11-15T07:08:41.552Z,11.13
2022-11-15T07:09:41.545Z,11.01
2022-11-15T07:10:41.519Z,10.96
2022-11-15T07:11:41.538Z,10.91
2022-11-15T07:12:41.512Z,10.95
2022-11-15T07:13:41.521Z,10.76
2022-11-15T07:14:42.517Z,10.68
2022-11-15T07:15:41.512Z,10.68
2022-11-15T07:16:41.634Z,10.76
2022-11-15T07:17:41.496Z,10.66
2022-11-15T07:18:41.484Z,10.80
2022-11-15T07:19:41.471Z,10.83
2022-11-15T07:20:41.712Z,10.84
2022-11-15T07:21:41.450Z,10.89
2022-11-15T07:22:41.463Z,11.03
2022-11-15T07:23:41.461Z,10.84
2022-11-15T07:24:41.501Z,11.09
2022-11-15T07:25:42.113Z,11.07
2022-11-15T07:26:41.446Z,11.02
2022-11-15T07:27:41.482Z,11.13
2022-11-15T07:28:41.438Z,11.19
2022-11-15T07:29:41.430Z,11.24
2022-11-15T07:30:45.210Z,11.24
2022-11-15T07:31:42.407Z,11.25
2022-11-15T07:32:41.408Z,11.14
2022-11-15T07:33:41.395Z,11.24
2022-11-15T07:34:41.386Z,11.21
2022-11-15T07:35:41.406Z,11.21
2022-11-15T07:36:41.379Z,11.20
2022-11-15T07:37:41.361Z,10.92
2022-11-15T07:38:43.162Z,10.80
2022-11-15T07:39:42.413Z,10.66
2022-11-15T07:40:41.372Z,10.65
2022-11-15T07:41:41.375Z,10.94
2022-11-15T07:42:41.338Z,11.43
2022-11-15T07:43:41.351Z,11.57
2022-11-15T07:44:41.528Z,11.77
2022-11-15T07:45:41.341Z,12.11
2022-11-15T07:46:41.346Z,12.04
2022-11-15T07:47:41.340Z,12.15
2022-11-15T07:48:45.260Z,12.04
2022-11-15T07:49:42.322Z,11.99
2022-11-15T07:50:41.302Z,12.02
2022-11-15T07:51:41.360Z,12.04
2022-11-15T07:52:41.292Z,12.04
2022-11-15T07:53:41.304Z,12.06
2022-11-15T07:54:41.341Z,12.19
2022-11-15T07:55:41.275Z,12.20
2022-11-15T07:56:41.275Z,12.27
2022-11-15T07:57:41.259Z,12.31
2022-11-15T07:58:41.248Z,12.21
2022-11-15T07:59:41.244Z,12.33
2022-11-15T08:00:41.266Z,12.38
2022-11-15T08:01:41.322Z,12.15
2022-11-15T08:02:41.402Z,12.20
2022-11-15T08:03:41.214Z,12.30
2022-11-15T08:04:41.243Z,12.37
2022-11-15T08:05:41.235Z,12.51
2022-11-15T08:06:41.204Z,12.48
2022-11-15T08:07:41.205Z,12.59
2022-11-15T08:08:41.228Z,12.67
2022-11-15T08:09:41.186Z,12.78
2022-11-15T08:10:41.177Z,12.84
2022-11-15T08:11:41.202Z,12.85
2022-11-15T08:12:41.227Z,13.07
2022-11-15T08:13:41.227Z,12.97
2022-11-15T08:14:41.155Z,13.18
2022-11-15T08:15:41.163Z,13.20
2022-11-15T08:16:41.153Z,13.07
2022-11-15T08:17:41.134Z,13.15
2022-11-15T08:18:41.143Z,12.99
2022-11-15T08:19:41.139Z,12.77
2022-11-15T08:20:41.145Z,12.84
2022-11-15T08:21:41.109Z,13.17
2022-11-15T08:22:41.143Z,13.24
2022-11-15T08:23:41.098Z,13.20
2022-11-15T08:24:41.102Z,13.27
2022-11-15T08:25:41.091Z,12.99
2022-11-15T08:26:41.085Z,12.81
2022-11-15T08:27:41.169Z,12.87
2022-11-15T08:28:41.066Z,13.58
2022-11-15T08:29:41.101Z,15.78
2022-11-15T08:30:41.071Z,17.54
2022-11-15T08:31:41.083Z,18.97
2022-11-15T08:32:41.035Z,20.42
2022-11-15T08:33:41.026Z,21.48
2022-11-15T08:34:41.492Z,21.76
2022-11-15T08:35:41.038Z,21.42
2022-11-15T08:36:45.870Z,20.68
2022-11-15T08:37:43.007Z,20.39
2022-11-15T08:38:41.009Z,21.50
2022-11-15T08:39:41.006Z,21.69
2022-11-15T08:40:41.028Z,22.87
2022-11-15T08:41:41.045Z,23.62
2022-11-15T08:42:40.964Z,24.32
2022-11-15T08:43:40.978Z,24.38
2022-11-15T08:44:40.991Z,23.23
2022-11-15T08:45:40.980Z,22.17
2022-11-15T08:46:40.952Z,20.90
2022-11-15T08:47:40.960Z,19.98
2022-11-15T08:48:40.927Z,19.43
2022-11-15T08:49:40.923Z,19.05
2022-11-15T08:50:40.985Z,18.74
2022-11-15T08:51:40.928Z,18.39
2022-11-15T08:52:40.905Z,17.57
2022-11-15T08:53:40.914Z,17.20
2022-11-15T08:54:40.961Z,16.65
2022-11-15T08:55:40.963Z,16.55
2022-11-15T08:56:40.884Z,16.44
2022-11-15T08:57:40.880Z,16.38
2022-11-15T08:58:40.869Z,16.31
2022-11-15T08:59:40.862Z,16.22
2022-11-15T09:00:40.879Z,16.20
2022-11-15T09:01:40.890Z,16.33
2022-11-15T09:02:40.846Z,16.49
2022-11-15T09:03:40.845Z,16.27
2022-11-15T09:04:40.830Z,16.37
2022-11-15T09:05:41.567Z,16.37
2022-11-15T09:06:43.220Z,16.50
2022-11-15T09:07:41.827Z,16.45
2022-11-15T09:08:47.550Z,16.56
2022-11-15T09:09:42.810Z,16.41
2022-11-15T09:10:40.798Z,16.37
2022-11-15T09:11:40.810Z,16.44
2022-11-15T09:12:40.785Z,16.42
2022-11-15T09:13:40.769Z,16.15
2022-11-15T09:14:40.783Z,15.82
2022-11-15T09:15:40.806Z,15.28
2022-11-15T09:16:40.776Z,15.43
2022-11-15T09:17:40.759Z,15.61
2022-11-15T09:18:40.841Z,15.59
2022-11-15T09:19:40.748Z,15.36
2022-11-15T09:20:40.758Z,15.56
2022-11-15T09:21:40.819Z,15.89
2022-11-15T09:22:40.728Z,16.18
2022-11-15T09:23:40.734Z,16.33
2022-11-15T09:24:40.721Z,16.45
2022-11-15T09:25:40.818Z,16.59
2022-11-15T09:26:40.728Z,16.90
2022-11-15T09:27:40.734Z,17.17
2022-11-15T09:28:53.538Z,17.30
2022-11-15T09:29:40.676Z,17.71
2022-11-15T09:30:40.685Z,18.02
2022-11-15T09:31:40.674Z,18.31
2022-11-15T09:32:40.664Z,18.36
2022-11-15T09:33:40.690Z,18.22
2022-11-15T09:34:40.666Z,18.29
2022-11-15T09:35:40.661Z,18.61
2022-11-15T09:36:40.658Z,18.59
2022-11-15T09:37:40.672Z,18.64
2022-11-15T09:38:40.657Z,18.61
2022-11-15T09:39:40.649Z,18.29
2022-11-15T09:40:40.647Z,18.07
2022-11-15T09:41:40.642Z,18.04
2022-11-15T09:42:40.621Z,18.27
2022-11-15T09:43:40.617Z,18.28
2022-11-15T09:44:40.639Z,17.95
2022-11-15T09:45:40.605Z,17.85
2022-11-15T09:46:40.607Z,17.88
2022-11-15T09:47:40.609Z,17.82
2022-11-15T09:48:40.577Z,17.63
2022-11-15T09:49:40.593Z,17.87
2022-11-15T09:50:40.577Z,17.66
2022-11-15T09:51:40.573Z,17.30
2022-11-15T09:52:40.565Z,17.33
2022-11-15T09:54:23.639Z,17.82
2022-11-15T09:54:57.946Z,17.81
2022-11-15T09:55:42.549Z,17.81
2022-11-15T09:56:40.560Z,18.03
2022-11-15T09:57:40.521Z,17.74
2022-11-15T09:58:40.545Z,17.07
2022-11-15T09:59:40.520Z,16.62
2022-11-15T10:00:48.505Z,16.53
2022-11-15T10:01:42.591Z,16.42
2022-11-15T10:02:40.545Z,16.18
2022-11-15T10:03:40.497Z,16.27
2022-11-15T10:04:40.496Z,16.20
2022-11-15T10:05:40.497Z,16.04
2022-11-15T10:06:40.538Z,16.11
2022-11-15T10:07:40.470Z,16.00
2022-11-15T10:08:40.498Z,16.18
2022-11-15T10:09:40.456Z,15.94
2022-11-15T10:10:40.457Z,15.82
2022-11-15T10:11:40.461Z,15.93
2022-11-15T10:12:40.453Z,16.06
2022-11-15T10:13:40.441Z,16.15
2022-11-15T10:14:40.511Z,16.20
2022-11-15T10:15:40.429Z,16.12
2022-11-15T10:16:51.295Z,16.23
2022-11-15T10:17:40.394Z,16.41
2022-11-15T10:18:40.412Z,16.52
2022-11-15T10:19:40.416Z,16.65
2022-11-15T10:20:40.397Z,16.92
2022-11-15T10:21:40.396Z,17.82
2022-11-15T10:22:40.375Z,18.24
2022-11-15T10:23:40.384Z,19.23
2022-11-15T10:24:40.404Z,19.10
2022-11-15T10:25:40.357Z,19.20
2022-11-15T10:26:40.368Z,19.36
2022-11-15T10:27:40.372Z,19.93
2022-11-15T10:28:40.354Z,19.84
2022-11-15T10:29:40.348Z,19.95
2022-11-15T10:30:40.398Z,21.19
2022-11-15T10:31:41.082Z,22.35
2022-11-15T10:32:40.311Z,23.64
2022-11-15T10:33:40.346Z,24.00
2022-11-15T10:34:40.306Z,22.82
2022-11-15T10:35:40.302Z,23.02
2022-11-15T10:36:40.295Z,22.27
2022-11-15T10:37:40.282Z,20.93
2022-11-15T10:38:40.307Z,20.42
2022-11-15T10:39:40.291Z,20.38
2022-11-15T10:40:40.274Z,20.23
2022-11-15T10:41:40.713Z,19.79
2022-11-15T10:42:41.649Z,19.73
2022-11-15T10:43:40.533Z,19.14
2022-11-15T10:44:41.366Z,18.73
2022-11-15T10:45:45.313Z,18.46
2022-11-15T10:46:48.280Z,18.28
2022-11-15T10:47:48.649Z,18.03
2022-11-15T10:48:40.577Z,17.67
2022-11-15T10:49:40.434Z,17.33
2022-11-15T10:50:41.359Z,17.41
2022-11-15T10:51:40.585Z,17.66
2022-11-15T10:52:40.396Z,17.50
2022-11-15T10:53:40.794Z,17.87
2022-11-15T10:54:41.607Z,17.57
2022-11-15T10:55:43.853Z,17.57
2022-11-15T10:56:41.692Z,17.62
2022-11-15T10:57:41.212Z,17.82
2022-11-15T10:58:41.100Z,17.89
2022-11-15T11:02:26.792Z,17.11
2022-11-15T11:03:27.333Z,16.89
2022-11-15T11:04:27.206Z,16.77
2022-11-15T11:05:27.368Z,16.71
2022-11-15T11:06:27.075Z,16.48
2022-11-15T11:07:27.409Z,16.48
2022-11-15T11:08:26.513Z,16.48
2022-11-15T11:09:26.563Z,16.44
2022-11-15T11:10:50.312Z,16.58
2022-11-15T11:11:28.843Z,16.56
2022-11-15T11:12:26.843Z,16.63
2022-11-15T11:13:26.894Z,16.60
2022-11-15T11:14:26.573Z,16.63
2022-11-15T11:15:27.121Z,16.83
2022-11-15T11:16:29.382Z,16.80
2022-11-15T11:17:27.112Z,16.60
2022-11-15T11:18:28.205Z,16.56
2022-11-15T11:19:27.558Z,16.41
2022-11-15T11:20:27.671Z,16.35
2022-11-15T11:21:31.941Z,16.45
2022-11-15T11:22:28.636Z,16.41
2022-11-15T11:23:26.879Z,16.41
2022-11-15T11:24:27.224Z,16.53
2022-11-15T11:25:26.818Z,16.45
2022-11-15T11:26:26.844Z,16.40
2022-11-15T11:27:26.969Z,16.45
2022-11-15T11:28:32.240Z,16.40
2022-11-15T11:29:30.090Z,16.49
2022-11-15T11:30:27.983Z,16.52
2022-11-15T11:31:27.650Z,16.65
2022-11-15T11:32:27.399Z,16.48
2022-11-15T11:33:26.327Z,16.38
2022-11-15T11:34:26.808Z,16.48
2022-11-15T11:35:26.222Z,16.60
2022-11-15T11:36:26.224Z,16.59
2022-11-15T11:37:26.157Z,16.62
2022-11-15T11:38:26.179Z,16.40
2022-11-15T11:39:26.200Z,16.27
2022-11-15T11:40:26.183Z,16.34
2022-11-15T11:41:26.147Z,16.49
2022-11-15T11:42:26.150Z,16.38
2022-11-15T11:43:26.186Z,16.31
2022-11-15T11:44:26.117Z,16.42
2022-11-15T11:45:26.110Z,16.34
2022-11-15T11:46:26.157Z,16.27
2022-11-15T11:47:26.158Z,16.49
2022-11-15T11:48:26.098Z,16.74
2022-11-15T11:49:26.121Z,16.62
2022-11-15T11:50:26.089Z,16.38
2022-11-15T11:51:26.104Z,16.48
2022-11-15T11:52:26.082Z,16.48
2022-11-15T11:53:26.077Z,16.41
2022-11-15T11:54:26.058Z,16.45
2022-11-15T11:55:26.081Z,16.78
2022-11-15T11:56:26.053Z,16.85
2022-11-15T11:57:26.041Z,16.93
2022-11-15T11:58:26.061Z,17.13
2022-11-15T11:59:26.031Z,17.14
2022-11-15T12:00:26.025Z,16.86
2022-11-15T12:01:26.038Z,16.96
2022-11-15T12:02:26.101Z,16.93
2022-11-15T12:03:26.031Z,16.95
2022-11-15T12:04:26.019Z,17.00
2022-11-15T12:05:26.640Z,16.92
2022-11-15T12:06:26.040Z,16.93
2022-11-15T12:07:26.047Z,16.99
2022-11-15T12:08:25.982Z,16.93
2022-11-15T12:09:25.993Z,16.88
2022-11-15T12:10:25.979Z,16.65
2022-11-15T12:11:26.436Z,16.67
2022-11-15T12:12:25.946Z,16.81
2022-11-15T12:13:25.983Z,16.75
2022-11-15T12:14:26.019Z,16.73
2022-11-15T12:15:25.952Z,16.75
2022-11-15T12:16:25.932Z,16.86
2022-11-15T12:17:25.944Z,16.96
2022-11-15T12:18:25.915Z,17.35
2022-11-15T12:19:25.935Z,17.53
2022-11-15T12:20:25.963Z,17.29
2022-11-15T12:21:28.712Z,17.25
2022-11-15T12:22:26.907Z,17.23
2022-11-15T12:23:25.915Z,17.33
2022-11-15T12:24:25.931Z,17.28
2022-11-15T12:25:25.979Z,17.20
2022-11-15T12:26:25.943Z,17.22
2022-11-15T12:27:26.823Z,17.08
2022-11-15T12:28:26.895Z,17.11
2022-11-15T12:29:25.858Z,17.13
2022-11-15T12:30:25.867Z,17.15
2022-11-15T12:31:25.906Z,17.15
2022-11-15T12:32:25.847Z,17.15
2022-11-15T12:33:25.838Z,17.28
2022-11-15T12:34:25.927Z,17.20
2022-11-15T12:35:25.825Z,17.29
2022-11-15T12:36:25.828Z,17.28
2022-11-15T12:37:25.877Z,17.48
2022-11-15T12:38:25.808Z,17.41
2022-11-15T12:39:25.834Z,17.55
2022-11-15T12:40:25.861Z,17.81
2022-11-15T12:41:25.807Z,17.59
2022-11-15T12:42:25.840Z,17.63
2022-11-15T12:43:25.801Z,17.70
2022-11-15T12:44:25.787Z,17.40
2022-11-15T12:45:25.811Z,17.53
2022-11-15T12:46:25.759Z,17.50
2022-11-15T12:47:25.773Z,17.11
2022-11-15T12:48:25.762Z,16.95
2022-11-15T12:49:25.744Z,17.14
2022-11-15T12:50:25.767Z,17.08
2022-11-15T12:51:25.733Z,17.03
2022-11-15T12:52:26.720Z,16.86
2022-11-15T12:53:25.745Z,17.08
2022-11-15T12:54:25.748Z,17.20
2022-11-15T12:55:25.703Z,17.04
2022-11-15T12:56:25.708Z,17.08
2022-11-15T12:57:25.683Z,17.11
2022-11-15T12:58:25.680Z,17.15